createdAt,value
2022-08-26T00:00:18.851Z,73.61
2022-08-26T00:01:18.837Z,73.51
2022-08-26T00:02:19.380Z,73.51
2022-08-26T00:03:18.815Z,73.51
2022-08-26T00:04:18.939Z,73.32
2022-08-26T00:05:18.788Z,73.32
2022-08-26T00:06:20.392Z,73.22
2022-08-26T00:07:18.768Z,73.51
2022-08-26T00:08:18.762Z,73.42
2022-08-26T00:09:18.761Z,73.61
2022-08-26T00:10:18.733Z,73.61
2022-08-26T00:11:26.236Z,73.80
2022-08-26T00:12:18.715Z,73.90
2022-08-26T00:13:19.639Z,73.90
2022-08-26T00:14:18.688Z,73.90
2022-08-26T00:15:18.679Z,74.29
2022-08-26T00:16:18.687Z,74.29
2022-08-26T00:17:18.651Z,74.09
2022-08-26T00:18:22.290Z,74.19
2022-08-26T00:19:18.630Z,73.99
2022-08-26T00:20:18.619Z,74.29
2022-08-26T00:21:18.606Z,73.99
2022-08-26T00:22:21.478Z,74.76
2022-08-26T00:23:18.583Z,74.57
2022-08-26T00:24:18.570Z,74.34
2022-08-26T00:25:18.565Z,74.73
2022-08-26T00:26:18.548Z,74.92
2022-08-26T00:27:18.540Z,75.21
2022-08-26T00:28:18.950Z,75.31
2022-08-26T00:29:18.508Z,75.40
2022-08-26T00:30:22.781Z,75.31
2022-08-26T00:31:18.554Z,75.69
2022-08-26T00:32:18.480Z,76.36
2022-08-26T00:33:18.499Z,75.98
2022-08-26T00:34:19.438Z,75.69
2022-08-26T00:35:18.442Z,75.31
2022-08-26T00:36:20.289Z,75.79
2022-08-26T00:37:18.421Z,75.79
2022-08-26T00:38:18.409Z,75.98
2022-08-26T00:39:18.397Z,75.79
2022-08-26T00:40:18.511Z,75.98
2022-08-26T00:41:18.372Z,76.17
2022-08-26T00:42:18.361Z,76.07
2022-08-26T00:43:18.348Z,76.07
2022-08-26T00:44:18.339Z,76.26
2022-08-26T00:45:18.327Z,76.07
2022-08-26T00:46:18.314Z,76.17
2022-08-26T00:47:18.305Z,76.17
2022-08-26T00:48:18.290Z,75.88
2022-08-26T00:49:18.278Z,75.98
2022-08-26T00:50:18.269Z,75.79
2022-08-26T00:51:18.255Z,75.88
2022-08-26T00:52:18.248Z,75.69
2022-08-26T00:53:18.233Z,75.88
2022-08-26T00:54:18.220Z,76.17
2022-08-26T00:55:20.359Z,75.79
2022-08-26T00:56:18.198Z,75.79
2022-08-26T00:57:18.185Z,75.98
2022-08-26T00:58:18.172Z,75.98
2022-08-26T00:59:18.160Z,76.07
2022-08-26T01:00:18.150Z,76.07
2022-08-26T01:01:18.182Z,76.07
2022-08-26T01:02:20.908Z,76.46
2022-08-26T01:03:18.115Z,76.46
2022-08-26T01:04:18.105Z,76.46
2022-08-26T01:05:18.094Z,76.26
2022-08-26T01:06:18.079Z,76.46
2022-08-26T01:07:18.068Z,76.07
2022-08-26T01:08:18.055Z,76.94
2022-08-26T01:09:18.046Z,76.75
2022-08-26T01:10:18.031Z,76.84
2022-08-26T01:11:18.020Z,76.75
2022-08-26T01:12:21.956Z,76.75
2022-08-26T01:13:17.999Z,76.75
2022-08-26T01:14:17.982Z,76.65
2022-08-26T01:15:17.974Z,77.04
2022-08-26T01:16:18.004Z,77.04
2022-08-26T01:17:17.947Z,77.23
2022-08-26T01:18:17.938Z,76.84
2022-08-26T01:19:17.921Z,77.13
2022-08-26T01:20:17.910Z,76.84
2022-08-26T01:21:17.898Z,76.75
2022-08-26T01:22:17.887Z,76.75
2022-08-26T01:23:17.878Z,76.75
2022-08-26T01:24:17.868Z,77.23
2022-08-26T01:25:17.863Z,77.48
2022-08-26T01:26:20.029Z,77.51
2022-08-26T01:27:17.828Z,76.94
2022-08-26T01:28:17.817Z,77.04
2022-08-26T01:29:17.803Z,76.94
2022-08-26T01:30:17.797Z,76.84
2022-08-26T01:31:17.816Z,76.84
2022-08-26T01:32:17.772Z,76.75
2022-08-26T01:33:17.758Z,77.42
2022-08-26T01:34:17.749Z,77.61
2022-08-26T01:35:17.734Z,77.61
2022-08-26T01:36:17.725Z,77.51
2022-08-26T01:37:17.713Z,77.51
2022-08-26T01:38:17.698Z,77.42
2022-08-26T01:39:17.689Z,77.42
2022-08-26T01:40:17.751Z,77.61
2022-08-26T01:41:19.870Z,77.81
2022-08-26T01:42:17.758Z,77.42
2022-08-26T01:43:17.653Z,77.42
2022-08-26T01:44:17.628Z,77.90
2022-08-26T01:45:17.616Z,77.90
2022-08-26T01:46:17.664Z,78.09
2022-08-26T01:47:17.593Z,77.90
2022-08-26T01:48:17.581Z,78.09
2022-08-26T01:49:17.568Z,77.81
2022-08-26T01:50:27.802Z,77.81
2022-08-26T01:51:17.546Z,78.09
2022-08-26T01:52:17.533Z,78.09
2022-08-26T01:53:17.529Z,78.09
2022-08-26T01:54:17.510Z,77.61
2022-08-26T01:55:32.919Z,77.90
2022-08-26T01:56:17.490Z,77.71
2022-08-26T01:57:17.471Z,77.42
2022-08-26T01:58:17.461Z,77.61
2022-08-26T01:59:17.454Z,77.75
2022-08-26T02:00:17.442Z,76.69
2022-08-26T02:01:17.484Z,77.08
2022-08-26T02:02:17.419Z,77.08
2022-08-26T02:03:17.469Z,77.26
2022-08-26T02:04:17.438Z,76.98
2022-08-26T02:05:17.385Z,76.78
2022-08-26T02:06:17.369Z,76.59
2022-08-26T02:07:17.357Z,76.40
2022-08-26T02:08:17.344Z,76.50
2022-08-26T02:09:17.337Z,76.50
2022-08-26T02:10:17.324Z,76.50
2022-08-26T02:11:18.437Z,76.98
2022-08-26T02:12:17.299Z,76.98
2022-08-26T02:13:17.289Z,76.88
2022-08-26T02:14:17.278Z,76.78
2022-08-26T02:15:17.315Z,76.88
2022-08-26T02:16:17.299Z,77.61
2022-08-26T02:17:17.240Z,77.42
2022-08-26T02:18:17.227Z,77.33
2022-08-26T02:19:17.496Z,77.23
2022-08-26T02:20:17.205Z,77.13
2022-08-26T02:21:17.197Z,77.61
2022-08-26T02:22:17.183Z,77.61
2022-08-26T02:23:17.168Z,77.42
2022-08-26T02:24:17.160Z,78.00
2022-08-26T02:25:17.145Z,77.81
2022-08-26T02:26:18.121Z,77.71
2022-08-26T02:27:17.124Z,78.09
2022-08-26T02:28:17.114Z,78.38
2022-08-26T02:29:17.098Z,78.58
2022-08-26T02:30:17.375Z,78.19
2022-08-26T02:31:17.121Z,78.28
2022-08-26T02:32:18.422Z,78.00
2022-08-26T02:33:17.054Z,78.28
2022-08-26T02:34:17.039Z,78.09
2022-08-26T02:35:18.213Z,78.19
2022-08-26T02:36:17.015Z,78.48
2022-08-26T02:37:17.618Z,78.67
2022-08-26T02:38:16.995Z,78.38
2022-08-26T02:39:22.063Z,78.58
2022-08-26T02:40:17.035Z,78.58
2022-08-26T02:41:16.953Z,78.67
2022-08-26T02:42:16.959Z,78.77
2022-08-26T02:43:16.996Z,78.58
2022-08-26T02:44:16.922Z,78.96
2022-08-26T02:45:16.911Z,78.86
2022-08-26T02:46:27.607Z,78.96
2022-08-26T02:47:16.928Z,78.67
2022-08-26T02:48:16.883Z,78.96
2022-08-26T02:49:17.000Z,78.58
2022-08-26T02:50:16.856Z,78.09
2022-08-26T02:51:16.837Z,78.00
2022-08-26T02:52:16.831Z,78.28
2022-08-26T02:53:16.813Z,78.19
2022-08-26T02:54:16.803Z,78.09
2022-08-26T02:55:16.793Z,78.19
2022-08-26T02:56:16.778Z,78.58
2022-08-26T02:57:16.770Z,78.38
2022-08-26T02:58:16.758Z,78.58
2022-08-26T02:59:16.744Z,78.86
2022-08-26T03:00:16.735Z,78.58
2022-08-26T03:01:16.787Z,78.28
2022-08-26T03:02:16.764Z,78.19
2022-08-26T03:03:16.699Z,78.28
2022-08-26T03:04:16.688Z,78.09
2022-08-26T03:05:16.674Z,78.48
2022-08-26T03:06:16.666Z,78.28
2022-08-26T03:07:16.652Z,78.19
2022-08-26T03:08:16.640Z,77.61
2022-08-26T03:09:18.534Z,77.81
2022-08-26T03:10:16.619Z,77.61
2022-08-26T03:11:16.602Z,77.42
2022-08-26T03:12:16.593Z,77.23
2022-08-26T03:13:16.582Z,77.42
2022-08-26T03:14:16.565Z,77.75
2022-08-26T03:15:17.837Z,76.75
2022-08-26T03:16:16.625Z,76.98
2022-08-26T03:17:16.534Z,77.08
2022-08-26T03:18:16.529Z,77.17
2022-08-26T03:19:17.703Z,77.08
2022-08-26T03:20:17.345Z,77.26
2022-08-26T03:21:16.485Z,77.17
2022-08-26T03:22:16.476Z,76.59
2022-08-26T03:23:16.461Z,76.78
2022-08-26T03:24:16.447Z,76.78
2022-08-26T03:25:16.438Z,77.46
2022-08-26T03:26:16.425Z,77.46
2022-08-26T03:27:16.416Z,77.56
2022-08-26T03:28:16.411Z,77.84
2022-08-26T03:29:16.582Z,77.65
2022-08-26T03:30:16.378Z,77.56
2022-08-26T03:31:16.421Z,77.56
2022-08-26T03:32:16.356Z,77.56
2022-08-26T03:33:16.348Z,77.46
2022-08-26T03:34:16.333Z,77.46
2022-08-26T03:35:16.319Z,77.46
2022-08-26T03:36:16.309Z,77.36
2022-08-26T03:37:16.301Z,77.36
2022-08-26T03:38:16.287Z,77.36
2022-08-26T03:39:16.273Z,77.36
2022-08-26T03:40:16.390Z,77.84
2022-08-26T03:41:16.251Z,77.65
2022-08-26T03:42:16.236Z,77.84
2022-08-26T03:43:16.228Z,77.75
2022-08-26T03:44:16.219Z,77.36
2022-08-26T03:45:16.204Z,77.36
2022-08-26T03:46:16.207Z,77.17
2022-08-26T03:47:16.180Z,77.46
2022-08-26T03:48:16.166Z,77.56
2022-08-26T03:49:16.171Z,77.56
2022-08-26T03:50:16.143Z,77.46
2022-08-26T03:51:18.305Z,77.36
2022-08-26T03:52:16.124Z,76.88
2022-08-26T03:53:16.111Z,76.98
2022-08-26T03:54:16.100Z,77.17
2022-08-26T03:55:16.086Z,77.26
2022-08-26T03:56:16.076Z,76.69
2022-08-26T03:57:16.767Z,76.78
2022-08-26T03:58:16.056Z,76.40
2022-08-26T03:59:16.043Z,76.31
2022-08-26T04:00:18.431Z,76.50
2022-08-26T04:01:16.079Z,76.50
2022-08-26T04:02:16.012Z,76.40
2022-08-26T04:03:18.761Z,76.50
2022-08-26T04:04:15.991Z,76.50
2022-08-26T04:05:15.975Z,76.69
2022-08-26T04:06:15.963Z,76.21
2022-08-26T04:07:23.633Z,75.92
2022-08-26T04:09:20.411Z,75.92
2022-08-26T04:10:20.496Z,76.01
2022-08-26T04:11:20.369Z,76.21
2022-08-26T04:12:20.359Z,76.01
2022-08-26T04:13:20.345Z,76.01
2022-08-26T04:14:20.388Z,76.11
2022-08-26T04:15:20.320Z,76.46
2022-08-26T04:16:20.375Z,76.07
2022-08-26T04:17:20.296Z,76.94
2022-08-26T04:18:20.286Z,76.65
2022-08-26T04:19:20.277Z,77.04
2022-08-26T04:20:20.262Z,76.94
2022-08-26T04:21:20.256Z,76.75
2022-08-26T04:22:24.859Z,77.33
2022-08-26T04:23:20.230Z,77.81
2022-08-26T04:24:20.216Z,77.42
2022-08-26T04:25:20.639Z,77.38
2022-08-26T04:26:20.192Z,77.76
2022-08-26T04:27:20.179Z,78.15
2022-08-26T04:28:20.170Z,78.15
2022-08-26T04:29:20.155Z,78.53
2022-08-26T04:30:20.148Z,78.15
2022-08-26T04:31:20.184Z,78.53
2022-08-26T04:32:20.120Z,79.02
2022-08-26T04:33:20.109Z,78.83
2022-08-26T04:34:20.098Z,78.92
2022-08-26T04:35:25.480Z,78.83
2022-08-26T04:36:20.328Z,78.63
2022-08-26T04:37:20.059Z,78.73
2022-08-26T04:38:20.050Z,78.63
2022-08-26T04:39:20.037Z,79.02
2022-08-26T04:40:20.114Z,79.02
2022-08-26T04:41:20.011Z,78.73
2022-08-26T04:42:23.271Z,78.83
2022-08-26T04:43:19.988Z,78.73
2022-08-26T04:44:19.978Z,79.02
2022-08-26T04:45:22.591Z,78.63
2022-08-26T04:46:19.987Z,78.63
2022-08-26T04:47:19.941Z,78.73
2022-08-26T04:48:19.930Z,79.02
2022-08-26T04:49:19.917Z,78.92
2022-08-26T04:50:19.904Z,78.83
2022-08-26T04:51:19.892Z,79.40
2022-08-26T04:52:19.883Z,79.11
2022-08-26T04:53:19.868Z,79.21
2022-08-26T04:54:19.856Z,79.21
2022-08-26T04:55:19.847Z,79.21
2022-08-26T04:56:19.833Z,79.88
2022-08-26T04:57:19.823Z,79.79
2022-08-26T04:58:19.810Z,79.60
2022-08-26T04:59:19.795Z,79.50
2022-08-26T05:00:19.787Z,79.79
2022-08-26T05:01:19.789Z,79.69
2022-08-26T05:02:19.761Z,79.79
2022-08-26T05:03:19.747Z,79.40
2022-08-26T05:04:19.837Z,79.30
2022-08-26T05:05:19.723Z,79.40
2022-08-26T05:06:19.714Z,79.11
2022-08-26T05:07:19.703Z,79.60
2022-08-26T05:08:19.689Z,79.79
2022-08-26T05:09:19.692Z,79.79
2022-08-26T05:10:19.666Z,79.88
2022-08-26T05:11:19.654Z,79.60
2022-08-26T05:12:19.641Z,79.60
2022-08-26T05:13:20.574Z,79.30
2022-08-26T05:14:19.619Z,79.50
2022-08-26T05:15:19.612Z,79.88
2022-08-26T05:16:19.639Z,80.07
2022-08-26T05:17:19.580Z,79.60
2022-08-26T05:18:19.919Z,79.53
2022-08-26T05:19:19.771Z,80.40
2022-08-26T05:20:25.171Z,79.63
2022-08-26T05:21:19.531Z,79.92
2022-08-26T05:22:19.521Z,80.02
2022-08-26T05:23:19.507Z,79.82
2022-08-26T05:24:19.499Z,79.53
2022-08-26T05:25:19.485Z,79.82
2022-08-26T05:26:23.094Z,79.73
2022-08-26T05:27:19.459Z,79.73
2022-08-26T05:28:19.450Z,79.63
2022-08-26T05:29:19.435Z,79.73
2022-08-26T05:30:19.426Z,79.44
2022-08-26T05:31:19.448Z,79.63
2022-08-26T05:32:19.403Z,79.63
2022-08-26T05:33:19.391Z,79.63
2022-08-26T05:34:19.377Z,79.63
2022-08-26T05:35:19.367Z,79.96
2022-08-26T05:36:19.355Z,79.48
2022-08-26T05:37:19.344Z,79.86
2022-08-26T05:38:19.334Z,79.77
2022-08-26T05:39:19.317Z,79.28
2022-08-26T05:40:19.375Z,79.38
2022-08-26T05:41:19.296Z,79.10
2022-08-26T05:42:19.284Z,79.00
2022-08-26T05:43:20.043Z,78.65
2022-08-26T05:44:19.263Z,78.27
2022-08-26T05:45:19.249Z,78.36
2022-08-26T05:46:19.286Z,77.88
2022-08-26T05:47:19.225Z,77.88
2022-08-26T05:48:22.800Z,77.40
2022-08-26T05:49:19.395Z,76.86
2022-08-26T05:50:19.198Z,77.34
2022-08-26T05:51:21.767Z,77.06
2022-08-26T05:52:19.174Z,76.28
2022-08-26T05:53:19.154Z,76.03
2022-08-26T05:54:22.311Z,76.32
2022-08-26T05:55:19.132Z,75.65
2022-08-26T05:56:19.122Z,75.45
2022-08-26T05:57:19.114Z,75.07
2022-08-26T05:58:19.099Z,75.36
2022-08-26T05:59:24.344Z,74.97
2022-08-26T06:00:19.078Z,74.68
2022-08-26T06:01:19.128Z,74.24
2022-08-26T06:02:19.086Z,74.14
2022-08-26T06:03:19.133Z,74.43
2022-08-26T06:04:19.032Z,73.75
2022-08-26T06:05:19.019Z,73.66
2022-08-26T06:06:20.022Z,73.66
2022-08-26T06:07:19.001Z,73.75
2022-08-26T06:08:19.290Z,73.37
2022-08-26T06:09:18.979Z,73.27
2022-08-26T06:10:32.223Z,73.08
2022-08-26T06:11:18.956Z,72.83
2022-08-26T06:12:18.945Z,72.92
2022-08-26T06:13:18.933Z,72.73
2022-08-26T06:14:18.922Z,72.92
2022-08-26T06:15:18.915Z,72.25
2022-08-26T06:16:18.941Z,72.34
2022-08-26T06:17:18.892Z,72.25
2022-08-26T06:18:18.878Z,72.15
2022-08-26T06:19:18.869Z,72.25
2022-08-26T06:20:18.863Z,71.67
2022-08-26T06:21:18.846Z,71.96
2022-08-26T06:22:23.350Z,71.48
2022-08-26T06:23:18.824Z,71.48
2022-08-26T06:24:18.820Z,71.58
2022-08-26T06:25:18.802Z,71.38
2022-08-26T06:26:18.793Z,71.38
2022-08-26T06:27:18.782Z,71.67
2022-08-26T06:28:18.771Z,71.48
2022-08-26T06:29:24.119Z,71.00
2022-08-26T06:30:18.754Z,71.22
2022-08-26T06:31:18.790Z,70.90
2022-08-26T06:32:18.730Z,70.94
2022-08-26T06:33:18.719Z,71.03
2022-08-26T06:34:18.706Z,70.84
2022-08-26T06:35:18.697Z,70.64
2022-08-26T06:36:18.777Z,70.45
2022-08-26T06:37:18.677Z,70.16
2022-08-26T06:38:18.665Z,70.36
2022-08-26T06:39:18.653Z,69.78
2022-08-26T06:40:18.679Z,69.90
2022-08-26T06:41:18.632Z,70.20
2022-08-26T06:42:18.624Z,69.81
2022-08-26T06:43:18.611Z,69.71
2022-08-26T06:44:18.601Z,69.13
2022-08-26T06:45:18.593Z,69.52
2022-08-26T06:46:18.621Z,70.00
2022-08-26T06:47:18.570Z,69.32
2022-08-26T06:48:18.574Z,69.62
2022-08-26T06:49:18.551Z,69.65
2022-08-26T06:50:18.544Z,69.46
2022-08-26T06:51:18.530Z,69.56
2022-08-26T06:52:22.986Z,69.17
2022-08-26T06:53:18.508Z,68.88
2022-08-26T06:54:18.499Z,68.68
2022-08-26T06:55:18.489Z,68.78
2022-08-26T06:56:18.481Z,68.20
2022-08-26T06:57:18.473Z,68.59
2022-08-26T06:58:18.470Z,68.49
2022-08-26T06:59:18.449Z,68.43
2022-08-26T07:00:18.442Z,67.94
2022-08-26T07:01:18.468Z,68.04
2022-08-26T07:02:18.455Z,68.04
2022-08-26T07:03:18.475Z,68.14
2022-08-26T07:04:21.974Z,67.66
2022-08-26T07:05:18.393Z,67.69
2022-08-26T07:06:18.384Z,67.40
2022-08-26T07:07:18.372Z,67.30
2022-08-26T07:08:18.361Z,67.59
2022-08-26T07:09:18.354Z,67.01
2022-08-26T07:10:18.346Z,66.63
2022-08-26T07:11:18.333Z,66.33
2022-08-26T07:12:18.325Z,66.53
2022-08-26T07:13:18.313Z,66.43
2022-08-26T07:14:19.335Z,66.17
2022-08-26T07:15:18.294Z,66.17
2022-08-26T07:16:18.329Z,65.88
2022-08-26T07:17:18.277Z,66.17
2022-08-26T07:18:18.269Z,65.88
2022-08-26T07:19:18.257Z,65.72
2022-08-26T07:20:18.247Z,65.82
2022-08-26T07:21:18.405Z,65.82
2022-08-26T07:22:18.230Z,65.63
2022-08-26T07:23:18.224Z,64.95
2022-08-26T07:24:18.214Z,64.89
2022-08-26T07:25:19.349Z,64.79
2022-08-26T07:26:18.193Z,64.59
2022-08-26T07:27:18.188Z,64.50
2022-08-26T07:28:18.181Z,64.50
2022-08-26T07:29:18.170Z,64.59
2022-08-26T07:30:18.158Z,64.40
2022-08-26T07:31:18.280Z,63.72
2022-08-26T07:32:18.156Z,64.14
2022-08-26T07:33:18.137Z,64.04
2022-08-26T07:34:18.123Z,63.56
2022-08-26T07:35:18.120Z,63.37
2022-08-26T07:36:18.109Z,63.27
2022-08-26T07:37:18.106Z,63.37
2022-08-26T07:38:18.095Z,63.10
2022-08-26T07:39:18.086Z,63.01
2022-08-26T07:40:18.125Z,62.91
2022-08-26T07:41:18.084Z,62.52
2022-08-26T07:42:18.489Z,62.65
2022-08-26T07:43:18.053Z,61.78
2022-08-26T07:44:18.045Z,61.68
2022-08-26T07:45:18.037Z,61.32
2022-08-26T07:46:18.027Z,61.13
2022-08-26T07:47:25.031Z,60.28
2022-08-26T07:48:18.012Z,60.58
2022-08-26T07:49:18.049Z,60.00
2022-08-26T07:50:17.999Z,60.38
2022-08-26T07:51:17.995Z,59.54
2022-08-26T07:52:19.871Z,59.54
2022-08-26T07:53:18.228Z,58.59
2022-08-26T07:54:17.971Z,58.79
2022-08-26T07:55:17.963Z,58.69
2022-08-26T07:56:17.955Z,58.21
2022-08-26T07:57:19.169Z,58.50
2022-08-26T07:58:17.942Z,58.23
2022-08-26T07:59:17.937Z,57.85
2022-08-26T08:00:17.933Z,57.29
2022-08-26T08:01:17.964Z,57.49
2022-08-26T08:02:17.916Z,57.20
2022-08-26T08:03:17.912Z,57.10
2022-08-26T08:04:18.133Z,56.90
2022-08-26T08:05:17.939Z,56.51
2022-08-26T08:06:17.893Z,56.74
2022-08-26T08:07:17.892Z,56.54
2022-08-26T08:08:27.508Z,55.86
2022-08-26T08:09:17.882Z,55.79
2022-08-26T08:10:17.871Z,55.40
2022-08-26T08:11:17.867Z,55.30
2022-08-26T08:12:17.859Z,54.91
2022-08-26T08:13:17.857Z,54.82
2022-08-26T08:14:17.870Z,55.40
2022-08-26T08:15:17.848Z,54.52
2022-08-26T08:16:17.859Z,54.52
2022-08-26T08:17:17.838Z,54.52
2022-08-26T08:18:17.832Z,54.16
2022-08-26T08:19:17.825Z,53.97
2022-08-26T08:20:17.819Z,54.06
2022-08-26T08:21:21.290Z,53.21
2022-08-26T08:22:19.933Z,52.92
2022-08-26T08:23:17.810Z,52.83
2022-08-26T08:24:17.802Z,52.66
2022-08-26T08:25:17.799Z,52.75
2022-08-26T08:26:17.794Z,52.07
2022-08-26T08:27:22.851Z,51.95
2022-08-26T08:28:17.786Z,52.83
2022-08-26T08:29:17.844Z,51.85
2022-08-26T08:30:17.778Z,52.34
2022-08-26T08:31:21.642Z,51.85
2022-08-26T08:32:17.767Z,51.85
2022-08-26T08:33:17.769Z,51.65
2022-08-26T08:34:18.105Z,51.26
2022-08-26T08:35:17.755Z,51.65
2022-08-26T08:36:20.368Z,51.65
2022-08-26T08:37:17.750Z,51.85
2022-08-26T08:38:17.744Z,51.56
2022-08-26T08:39:17.817Z,51.46
2022-08-26T08:40:17.786Z,51.26
2022-08-26T08:41:17.731Z,50.99
2022-08-26T08:42:17.724Z,51.29
2022-08-26T08:43:17.730Z,51.02
2022-08-26T08:44:17.750Z,51.12
2022-08-26T08:45:17.718Z,50.43
2022-08-26T08:46:17.756Z,49.98
2022-08-26T08:47:17.706Z,49.68
2022-08-26T08:48:17.702Z,49.71
2022-08-26T08:49:17.779Z,49.19
2022-08-26T08:50:17.710Z,49.58
2022-08-26T08:51:17.689Z,49.29
2022-08-26T08:52:17.684Z,49.58
2022-08-26T08:53:17.680Z,49.22
2022-08-26T08:54:17.674Z,48.93
2022-08-26T08:55:18.212Z,48.34
2022-08-26T08:56:17.669Z,48.46
2022-08-26T08:57:17.694Z,48.36
2022-08-26T08:58:19.148Z,47.70
2022-08-26T08:59:17.722Z,47.63
2022-08-26T09:00:17.790Z,47.04
2022-08-26T09:01:17.676Z,46.98
2022-08-26T09:02:17.702Z,46.40
2022-08-26T09:03:17.646Z,46.23
2022-08-26T09:04:17.639Z,45.44
2022-08-26T09:05:17.640Z,45.47
2022-08-26T09:06:17.632Z,45.68
2022-08-26T09:07:17.630Z,44.73
2022-08-26T09:08:19.888Z,44.23
2022-08-26T09:09:17.626Z,43.37
2022-08-26T09:10:17.724Z,43.18
2022-08-26T09:11:17.620Z,43.18
2022-08-26T09:12:17.617Z,43.18
2022-08-26T09:13:25.053Z,42.71
2022-08-26T09:14:17.614Z,42.33
2022-08-26T09:15:17.612Z,42.16
2022-08-26T09:16:19.165Z,41.56
2022-08-26T09:17:17.608Z,41.08
2022-08-26T09:18:17.605Z,41.08
2022-08-26T09:19:18.865Z,40.80
2022-08-26T09:20:17.695Z,40.43
2022-08-26T09:21:17.939Z,40.33
2022-08-26T09:22:17.630Z,39.95
2022-08-26T09:23:17.597Z,39.56
2022-08-26T09:24:18.143Z,39.09
2022-08-26T09:25:18.071Z,39.48
2022-08-26T09:26:17.597Z,39.31
2022-08-26T09:27:17.606Z,38.51
2022-08-26T09:28:17.591Z,38.04
2022-08-26T09:29:17.671Z,38.04
2022-08-26T09:30:17.702Z,37.47
2022-08-26T09:31:17.649Z,37.27
2022-08-26T09:32:17.588Z,37.09
2022-08-26T09:33:17.589Z,36.63
2022-08-26T09:34:17.856Z,36.04
2022-08-26T09:35:17.589Z,35.75
2022-08-26T09:36:17.588Z,35.83
2022-08-26T09:37:17.589Z,36.12
2022-08-26T09:38:17.586Z,36.12
2022-08-26T09:39:17.587Z,36.22
2022-08-26T09:40:17.791Z,35.73
2022-08-26T09:41:17.587Z,35.63
2022-08-26T09:42:17.587Z,35.53
2022-08-26T09:43:22.801Z,35.43
2022-08-26T09:44:17.586Z,35.33
2022-08-26T09:45:17.607Z,35.61
2022-08-26T09:46:17.709Z,34.72
2022-08-26T09:47:17.585Z,35.00
2022-08-26T09:48:17.730Z,34.99
2022-08-26T09:49:17.588Z,34.99
2022-08-26T09:50:17.584Z,34.89
2022-08-26T09:51:17.585Z,35.08
2022-08-26T09:52:17.586Z,34.91
2022-08-26T09:53:17.584Z,34.81
2022-08-26T09:54:20.771Z,34.71
2022-08-26T09:55:17.585Z,34.69
2022-08-26T09:56:17.582Z,34.59
2022-08-26T09:57:17.585Z,34.87
2022-08-26T09:58:17.582Z,34.87
2022-08-26T09:59:18.897Z,35.17
2022-08-26T10:00:17.581Z,35.18
2022-08-26T10:01:17.669Z,34.99
2022-08-26T10:02:17.579Z,34.79
2022-08-26T10:03:17.581Z,34.71
2022-08-26T10:04:17.612Z,34.61
2022-08-26T10:05:17.580Z,34.15
2022-08-26T10:06:17.579Z,33.85
2022-08-26T10:07:17.578Z,33.58
2022-08-26T10:08:17.577Z,33.28
2022-08-26T10:09:17.576Z,33.09
2022-08-26T10:10:17.579Z,33.09
2022-08-26T10:11:17.580Z,33.00
2022-08-26T10:12:17.576Z,32.80
2022-08-26T10:13:17.577Z,32.90
2022-08-26T10:14:17.576Z,32.68
2022-08-26T10:15:17.580Z,32.87
2022-08-26T10:16:17.828Z,33.16
2022-08-26T10:17:17.576Z,33.64
2022-08-26T10:18:17.574Z,33.42
2022-08-26T10:19:17.576Z,33.59
2022-08-26T10:20:22.691Z,33.97
2022-08-26T10:21:17.965Z,34.72
2022-08-26T10:22:17.573Z,34.90
2022-08-26T10:23:17.570Z,35.47
2022-08-26T10:24:17.569Z,35.85
2022-08-26T10:25:17.570Z,36.13
2022-08-26T10:26:17.574Z,36.60
2022-08-26T10:27:17.566Z,37.37
2022-08-26T10:28:17.562Z,37.63
2022-08-26T10:29:17.565Z,38.20
2022-08-26T10:30:17.559Z,38.29
2022-08-26T10:31:17.559Z,38.94
2022-08-26T10:32:17.645Z,39.51
2022-08-26T10:33:17.946Z,40.17
2022-08-26T10:34:17.549Z,40.56
2022-08-26T10:35:17.550Z,40.84
2022-08-26T10:36:20.287Z,41.21
2022-08-26T10:37:17.542Z,41.60
2022-08-26T10:38:17.537Z,41.97
2022-08-26T10:39:17.539Z,42.14
2022-08-26T10:40:17.665Z,42.54
2022-08-26T10:41:18.257Z,43.00
2022-08-26T10:42:17.527Z,43.19
2022-08-26T10:43:17.526Z,43.57
2022-08-26T10:44:17.520Z,43.85
2022-08-26T10:45:17.512Z,43.93
2022-08-26T10:46:17.533Z,44.13
2022-08-26T10:47:17.515Z,44.13
2022-08-26T10:48:17.497Z,44.20
2022-08-26T10:49:17.493Z,44.49
2022-08-26T10:50:18.024Z,45.08
2022-08-26T10:51:17.484Z,45.08
2022-08-26T10:52:17.477Z,45.08
2022-08-26T10:53:17.474Z,44.96
2022-08-26T10:54:17.466Z,45.25
2022-08-26T10:55:17.462Z,45.45
2022-08-26T10:56:19.190Z,46.23
2022-08-26T10:57:17.452Z,45.94
2022-08-26T10:58:26.064Z,46.40
2022-08-26T10:59:17.443Z,46.40
2022-08-26T11:00:17.442Z,46.01
2022-08-26T11:01:17.461Z,46.69
2022-08-26T11:02:19.497Z,46.40
2022-08-26T11:03:21.898Z,47.15
2022-08-26T11:04:17.469Z,46.77
2022-08-26T11:05:17.408Z,47.15
2022-08-26T11:06:17.409Z,47.83
2022-08-26T11:07:17.394Z,47.54
2022-08-26T11:08:17.419Z,47.83
2022-08-26T11:09:17.380Z,48.49
2022-08-26T11:10:17.375Z,48.20
2022-08-26T11:11:17.368Z,48.88
2022-08-26T11:12:17.362Z,48.58
2022-08-26T11:13:17.356Z,49.37
2022-08-26T11:14:17.348Z,49.73
2022-08-26T11:15:17.347Z,49.92
2022-08-26T11:16:17.367Z,49.82
2022-08-26T11:17:17.332Z,50.77
2022-08-26T11:18:17.322Z,50.68
2022-08-26T11:19:17.314Z,51.06
2022-08-26T11:20:17.307Z,50.96
2022-08-26T11:21:17.304Z,51.35
2022-08-26T11:22:17.291Z,51.33
2022-08-26T11:23:17.287Z,51.81
2022-08-26T11:24:17.281Z,51.81
2022-08-26T11:25:18.206Z,52.11
2022-08-26T11:26:36.024Z,51.62
2022-08-26T11:27:17.257Z,51.81
2022-08-26T11:28:17.251Z,51.72
2022-08-26T11:29:17.241Z,52.30
2022-08-26T11:30:18.556Z,52.69
2022-08-26T11:31:17.270Z,52.88
2022-08-26T11:32:17.220Z,52.20
2022-08-26T11:33:17.211Z,52.40
2022-08-26T11:34:17.204Z,52.98
2022-08-26T11:35:17.198Z,52.59
2022-08-26T11:36:17.192Z,52.40
2022-08-26T11:37:17.257Z,52.50
2022-08-26T11:38:17.173Z,52.78
2022-08-26T11:39:17.167Z,52.69
2022-08-26T11:40:17.191Z,52.88
2022-08-26T11:41:17.152Z,52.59
2022-08-26T11:42:20.325Z,52.98
2022-08-26T11:43:17.133Z,52.78
2022-08-26T11:44:17.128Z,52.88
2022-08-26T11:45:17.120Z,52.59
2022-08-26T11:46:17.160Z,52.78
2022-08-26T11:47:17.103Z,52.69
2022-08-26T11:48:17.100Z,52.50
2022-08-26T11:49:17.093Z,52.59
2022-08-26T11:50:17.079Z,52.78
2022-08-26T11:51:17.070Z,52.59
2022-08-26T11:52:17.067Z,52.69
2022-08-26T11:53:17.057Z,52.78
2022-08-26T11:54:17.048Z,53.17
2022-08-26T11:55:17.041Z,53.37
2022-08-26T11:56:17.034Z,52.88
2022-08-26T11:57:17.025Z,53.00
2022-08-26T11:58:17.017Z,52.62
2022-08-26T11:59:17.010Z,52.81
2022-08-26T12:00:20.937Z,52.62
2022-08-26T12:01:17.080Z,52.52
2022-08-26T12:02:17.898Z,52.91
2022-08-26T12:03:17.093Z,52.62
2022-08-26T12:04:17.072Z,52.81
2022-08-26T12:05:16.960Z,52.62
2022-08-26T12:06:17.025Z,52.52
2022-08-26T12:07:16.946Z,52.52
2022-08-26T12:08:16.938Z,52.23
2022-08-26T12:09:16.930Z,52.23
2022-08-26T12:10:16.923Z,52.52
2022-08-26T12:11:16.916Z,52.33
2022-08-26T12:12:16.908Z,52.25
2022-08-26T12:13:16.902Z,52.55
2022-08-26T12:14:16.891Z,52.45
2022-08-26T12:15:16.884Z,52.15
2022-08-26T12:16:16.923Z,51.87
2022-08-26T12:17:16.871Z,51.99
2022-08-26T12:18:16.861Z,52.09
2022-08-26T12:19:16.853Z,51.60
2022-08-26T12:20:16.849Z,51.70
2022-08-26T12:21:16.839Z,51.60
2022-08-26T12:22:16.833Z,51.21
2022-08-26T12:23:16.826Z,51.31
2022-08-26T12:24:16.820Z,51.31
2022-08-26T12:25:16.810Z,51.31
2022-08-26T12:26:16.803Z,51.01
2022-08-26T12:27:16.793Z,51.11
2022-08-26T12:28:16.788Z,50.95
2022-08-26T12:29:20.103Z,51.23
2022-08-26T12:30:19.165Z,51.33
2022-08-26T12:31:17.549Z,51.23
2022-08-26T12:32:16.760Z,51.14
2022-08-26T12:33:22.099Z,50.95
2022-08-26T12:34:17.392Z,51.14
2022-08-26T12:35:16.736Z,50.95
2022-08-26T12:36:16.741Z,51.04
2022-08-26T12:37:16.720Z,51.04
2022-08-26T12:38:16.716Z,50.87
2022-08-26T12:39:16.707Z,50.38
2022-08-26T12:40:16.735Z,50.87
2022-08-26T12:41:16.692Z,50.19
2022-08-26T12:42:16.689Z,50.19
2022-08-26T12:43:16.679Z,49.99
2022-08-26T12:44:16.676Z,50.19
2022-08-26T12:45:16.666Z,50.38
2022-08-26T12:46:16.658Z,50.38
2022-08-26T12:47:16.656Z,50.48
2022-08-26T12:48:16.645Z,50.97
2022-08-26T12:49:16.636Z,50.68
2022-08-26T12:50:16.630Z,50.68
2022-08-26T12:51:16.626Z,50.87
2022-08-26T12:52:16.617Z,50.90
2022-08-26T12:53:16.609Z,50.68